OOCL Atlanta — VRAR6 — position and weather

sailwx.info

Track history (hours):
 
Tides and Currents Weather Stations Pressure Air Temp Water Temp Dewpoint Dewpoint Depression Visibility Wind Speed Wind Dir Waves Ship Positions

OOCL Atlanta

Last reported at 2015-Mar-26 21:16 UTC. Time now 2015-Mar-27 10:19 UTC.
Position N 24°25' E 119°17'.

Length 323 m; beam 42.8 m; draft 14.5 m.

Type: Cargo ship. MMSI: 477920300.

Date/timePositionNaut miles runAvg speedWind from/ knotsBaromVisibWave heightAir tempDewpointWater temp
2015-Mar-26 21:16N 24°25' E 119°17'28618.0
2015-Mar-26 05:19N 22°18' E 114°37'2513.8
2015-Mar-26 03:30N 22°34' E 114°16'0 0.0
2015-Mar-26 02:05N 22°34' E 114°16'0 0.0
2015-Mar-25 21:23N 22°34' E 114°16'0 0.0
2015-Mar-25 20:05N 22°34' E 114°16'0 0.0
2015-Mar-25 19:29N 22°34' E 114°16'0 0.0
2015-Mar-25 15:05N 22°34' E 114°16'0 0.0
2015-Mar-25 14:29N 22°34' E 114°16'0 0.0
2015-Mar-25 13:30N 22°34' E 114°16'0 0.3
2015-Mar-25 12:31N 22°34' E 114°16'16 6.8
2015-Mar-25 10:13N 22°24' E 114°29'6 8.7
2015-Mar-25 09:31N 22°18' E 114°29'7 7.0
2015-Mar-25 08:33N 22°12' E 114°25'8 7.4
2015-Mar-25 07:32N 22°07' E 114°19'1510.2
2015-Mar-25 06:06N 22°16' E 114°06'4 8.2
2015-Mar-25 05:33N 22°21' E 114°07'0 0.1
2015-Mar-25 02:29N 22°21' E 114°07'0 0.0
2015-Mar-25 01:08N 22°21' E 114°07'0 0.0
2015-Mar-25 00:14N 22°21' E 114°07'0 0.0
2015-Mar-24 23:32N 22°21' E 114°07'0 0.0
2015-Mar-24 22:14N 22°21' E 114°07'0 0.0
2015-Mar-24 21:23N 22°21' E 114°07'0 0.0
2015-Mar-24 20:32N 22°21' E 114°07'0 0.0
2015-Mar-24 19:32N 22°21' E 114°07'0 0.0
2015-Mar-24 18:14N 22°21' E 114°07'0 0.0
2015-Mar-24 17:26N 22°21' E 114°07'0 0.0
2015-Mar-24 15:29N 22°21' E 114°07'0 0.0
2015-Mar-24 14:11N 22°21' E 114°07'0 0.0
2015-Mar-24 13:17N 22°21' E 114°07'0 0.1
2015-Mar-24 12:33N 22°21' E 114°07'2 2.4
2015-Mar-24 11:33N 22°20' E 114°05'1111.4
2015-Mar-24 10:33N 22°24' E 113°53'9 2.7
2015-Mar-24 07:24N 22°32' E 113°51'0 0.0
2015-Mar-24 06:30N 22°32' E 113°51'0 0.0
2015-Mar-24 05:24N 22°32' E 113°51'0 0.0
2015-Mar-24 04:24N 22°32' E 113°51'0 0.0
2015-Mar-24 03:30N 22°32' E 113°51'0 0.0
2015-Mar-24 02:30N 22°32' E 113°51'0 0.0
2015-Mar-24 01:24N 22°32' E 113°51'3 0.6
2015-Mar-23 19:05N 22°29' E 113°52'5 8.6
2015-Mar-23 18:33N 22°24' E 113°53'9 7.8
2015-Mar-23 17:23N 22°21' E 114°03'1011.8
2015-Mar-23 16:33N 22°14' E 114°09'8 7.5
2015-Mar-23 15:33N 22°09' E 114°15'10 9.5
2015-Mar-23 14:33N 22°03' E 114°24'  
2015-Mar-16 22:23N 01°16' E 104°16'1416.8
2015-Mar-16 21:33N 01°14' E 104°02'  
Track history (hours):
 
Tides and Currents Weather Stations Pressure Air Temp Water Temp Dewpoint Dewpoint Depression Visibility Wind Speed Wind Dir Waves Ship Positions

OOCL Atlanta

Last reported at 2015-Mar-26 21:16 UTC. Time now 2015-Mar-27 10:19 UTC.
Position N 24°25' E 119°17'.

Length 323 m; beam 42.8 m; draft 14.5 m.

Type: Cargo ship. MMSI: 477920300.

Date/timePositionNaut miles runAvg speedWind from/ knotsBaromVisibWave heightAir tempDewpointWater temp
2015-Mar-26 21:16N 24°25' E 119°17'28618.0
2015-Mar-26 05:19N 22°18' E 114°37'2513.8
2015-Mar-26 03:30N 22°34' E 114°16'0 0.0
2015-Mar-26 02:05N 22°34' E 114°16'0 0.0
2015-Mar-25 21:23N 22°34' E 114°16'0 0.0
2015-Mar-25 20:05N 22°34' E 114°16'0 0.0
2015-Mar-25 19:29N 22°34' E 114°16'0 0.0
2015-Mar-25 15:05N 22°34' E 114°16'0 0.0
2015-Mar-25 14:29N 22°34' E 114°16'0 0.0
2015-Mar-25 13:30N 22°34' E 114°16'0 0.3
2015-Mar-25 12:31N 22°34' E 114°16'16 6.8
2015-Mar-25 10:13N 22°24' E 114°29'6 8.7
2015-Mar-25 09:31N 22°18' E 114°29'7 7.0
2015-Mar-25 08:33N 22°12' E 114°25'8 7.4
2015-Mar-25 07:32N 22°07' E 114°19'1510.2
2015-Mar-25 06:06N 22°16' E 114°06'4 8.2
2015-Mar-25 05:33N 22°21' E 114°07'0 0.1
2015-Mar-25 02:29N 22°21' E 114°07'0 0.0
2015-Mar-25 01:08N 22°21' E 114°07'0 0.0
2015-Mar-25 00:14N 22°21' E 114°07'0 0.0
2015-Mar-24 23:32N 22°21' E 114°07'0 0.0
2015-Mar-24 22:14N 22°21' E 114°07'0 0.0
2015-Mar-24 21:23N 22°21' E 114°07'0 0.0
2015-Mar-24 20:32N 22°21' E 114°07'0 0.0
2015-Mar-24 19:32N 22°21' E 114°07'0 0.0
2015-Mar-24 18:14N 22°21' E 114°07'0 0.0
2015-Mar-24 17:26N 22°21' E 114°07'0 0.0
2015-Mar-24 15:29N 22°21' E 114°07'0 0.0
2015-Mar-24 14:11N 22°21' E 114°07'0 0.0
2015-Mar-24 13:17N 22°21' E 114°07'0 0.1
2015-Mar-24 12:33N 22°21' E 114°07'2 2.4
2015-Mar-24 11:33N 22°20' E 114°05'1111.4
2015-Mar-24 10:33N 22°24' E 113°53'9 2.7
2015-Mar-24 07:24N 22°32' E 113°51'0 0.0
2015-Mar-24 06:30N 22°32' E 113°51'0 0.0
2015-Mar-24 05:24N 22°32' E 113°51'0 0.0
2015-Mar-24 04:24N 22°32' E 113°51'0 0.0
2015-Mar-24 03:30N 22°32' E 113°51'0 0.0
2015-Mar-24 02:30N 22°32' E 113°51'0 0.0
2015-Mar-24 01:24N 22°32' E 113°51'3 0.6
2015-Mar-23 19:05N 22°29' E 113°52'5 8.6
2015-Mar-23 18:33N 22°24' E 113°53'9 7.8
2015-Mar-23 17:23N 22°21' E 114°03'1011.8
2015-Mar-23 16:33N 22°14' E 114°09'8 7.5
2015-Mar-23 15:33N 22°09' E 114°15'10 9.5
2015-Mar-23 14:33N 22°03' E 114°24'  
2015-Mar-16 22:23N 01°16' E 104°16'1416.8
2015-Mar-16 21:33N 01°14' E 104°02'  

Dump ship's entire track history